createdAt,value
2022-08-28T00:00:20.817Z,16.10
2022-08-28T00:02:48.054Z,15.96
2022-08-28T00:05:17.177Z,15.86
2022-08-28T00:07:47.679Z,15.97
2022-08-28T00:10:16.759Z,15.89
2022-08-28T00:12:44.352Z,15.88
2022-08-28T00:15:15.637Z,15.93
2022-08-28T00:17:42.556Z,15.96
2022-08-28T00:20:11.823Z,15.91
2022-08-28T00:22:39.881Z,15.90
2022-08-28T00:25:07.788Z,15.89
2022-08-28T00:27:52.488Z,15.94
2022-08-28T00:30:26.384Z,15.91
2022-08-28T00:32:54.778Z,15.91
2022-08-28T00:35:23.643Z,15.88
2022-08-28T00:37:50.621Z,15.84
2022-08-28T00:40:32.346Z,15.91
2022-08-28T00:43:00.358Z,16.00
2022-08-28T00:45:27.553Z,16.03
2022-08-28T00:47:54.309Z,15.97
2022-08-28T00:50:24.305Z,16.00
2022-08-28T00:52:55.301Z,16.03
2022-08-28T00:55:25.085Z,16.08
2022-08-28T00:57:54.860Z,16.09
2022-08-28T01:00:32.859Z,16.28
2022-08-28T01:02:59.863Z,16.19
2022-08-28T01:05:28.694Z,16.20
2022-08-28T01:07:58.627Z,16.20
2022-08-28T01:10:28.120Z,16.23
2022-08-28T01:12:56.896Z,16.10
2022-08-28T01:15:28.247Z,16.12
2022-08-28T01:17:59.564Z,16.10
2022-08-28T01:20:31.003Z,16.12
2022-08-28T01:23:19.429Z,16.14
2022-08-28T01:25:46.036Z,16.17
2022-08-28T01:28:14.203Z,16.10
2022-08-28T01:30:42.898Z,16.09
2022-08-28T01:33:09.404Z,16.03
2022-08-28T01:35:42.527Z,15.98
2022-08-28T01:38:09.151Z,15.93
2022-08-28T01:40:40.007Z,15.93
2022-08-28T01:43:36.535Z,15.92
2022-08-28T01:46:05.838Z,15.89
2022-08-28T01:48:37.173Z,15.81
2022-08-28T01:51:05.320Z,15.78
2022-08-28T01:53:33.202Z,15.77
2022-08-28T01:56:02.509Z,15.82
2022-08-28T01:58:32.983Z,15.70
2022-08-28T02:01:02.628Z,15.60
2022-08-28T02:03:29.248Z,15.62
2022-08-28T02:05:55.709Z,15.57
2022-08-28T02:08:22.275Z,15.63
2022-08-28T02:10:49.272Z,15.65
2022-08-28T02:13:15.877Z,15.75
2022-08-28T02:15:44.311Z,15.56
2022-08-28T02:18:11.006Z,15.66
2022-08-28T02:20:37.795Z,15.58
2022-08-28T02:23:04.674Z,15.60
2022-08-28T02:25:31.175Z,15.56
2022-08-28T02:27:57.733Z,15.51
2022-08-28T02:30:24.817Z,15.54
2022-08-28T02:32:52.032Z,15.52
2022-08-28T02:35:19.768Z,15.57
2022-08-28T02:37:47.661Z,15.59
2022-08-28T02:40:16.307Z,15.66
2022-08-28T02:42:43.238Z,15.74
2022-08-28T02:45:11.648Z,15.66
2022-08-28T02:47:42.735Z,15.79
2022-08-28T02:50:12.924Z,15.73
2022-08-28T02:52:40.512Z,15.74
2022-08-28T02:55:08.701Z,15.83
2022-08-28T02:57:35.283Z,15.92
2022-08-28T03:00:05.392Z,16.03
2022-08-28T03:02:31.919Z,16.07
2022-08-28T03:04:59.753Z,16.10
2022-08-28T03:07:29.316Z,16.15
2022-08-28T03:09:56.217Z,16.03
2022-08-28T03:12:24.288Z,16.13
2022-08-28T03:14:54.760Z,16.17
2022-08-28T03:17:22.106Z,16.19
2022-08-28T03:19:50.129Z,16.23
2022-08-28T03:22:38.514Z,16.29
2022-08-28T03:25:06.324Z,16.32
2022-08-28T03:27:33.065Z,16.36
2022-08-28T03:29:59.806Z,16.38
2022-08-28T03:32:26.800Z,16.37
2022-08-28T03:34:55.852Z,16.35
2022-08-28T03:37:22.318Z,16.40
2022-08-28T03:39:49.196Z,16.37
2022-08-28T03:42:15.805Z,16.43
2022-08-28T03:44:42.313Z,16.38
2022-08-28T03:47:09.033Z,16.40
2022-08-28T03:49:35.506Z,16.34
2022-08-28T03:52:02.570Z,16.30
2022-08-28T03:54:31.671Z,16.35
2022-08-28T03:56:58.379Z,16.38
2022-08-28T03:59:26.225Z,16.37
2022-08-28T04:01:59.063Z,16.38
2022-08-28T04:04:25.550Z,16.43
2022-08-28T04:06:51.984Z,16.45
2022-08-28T04:09:18.485Z,16.46
2022-08-28T04:11:44.974Z,16.47
2022-08-28T04:14:11.624Z,16.40
2022-08-28T04:16:38.487Z,16.43
2022-08-28T04:19:05.122Z,16.48
2022-08-28T04:21:31.630Z,16.44
2022-08-28T04:23:58.116Z,16.49
2022-08-28T04:26:26.749Z,16.47
2022-08-28T04:28:55.121Z,16.49
2022-08-28T04:31:31.805Z,16.49
2022-08-28T04:34:04.964Z,16.52
2022-08-28T04:36:32.629Z,16.53
2022-08-28T04:38:59.744Z,16.50
2022-08-28T04:41:26.664Z,16.53
2022-08-28T04:43:53.721Z,16.52
2022-08-28T04:46:20.481Z,16.56
2022-08-28T04:48:47.069Z,16.59
2022-08-28T04:51:17.177Z,16.62
2022-08-28T04:53:43.847Z,16.58
2022-08-28T04:56:12.976Z,16.54
2022-08-28T04:58:41.612Z,16.53
2022-08-28T05:01:12.702Z,16.61
2022-08-28T05:03:39.985Z,16.61
2022-08-28T05:06:07.149Z,16.63
2022-08-28T05:08:33.881Z,16.61
2022-08-28T05:11:33.837Z,16.63
2022-08-28T05:14:04.143Z,16.60
2022-08-28T05:16:30.806Z,16.60
2022-08-28T05:19:00.833Z,16.55
2022-08-28T05:21:28.150Z,16.57
2022-08-28T05:23:57.305Z,16.61
2022-08-28T05:26:27.109Z,16.63
2022-08-28T05:28:56.444Z,16.58
2022-08-28T05:31:24.876Z,16.58
2022-08-28T05:33:52.787Z,16.63
2022-08-28T05:36:22.041Z,16.69
2022-08-28T05:38:49.707Z,16.68
2022-08-28T05:41:21.780Z,16.69
2022-08-28T05:43:49.681Z,16.68
2022-08-28T05:46:17.229Z,16.69
2022-08-28T05:48:45.531Z,16.67
2022-08-28T05:51:14.521Z,16.57
2022-08-28T05:53:43.679Z,16.61
2022-08-28T05:56:19.813Z,16.61
2022-08-28T05:58:46.555Z,16.63
2022-08-28T06:01:17.359Z,16.64
2022-08-28T06:03:47.400Z,16.68
2022-08-28T06:06:13.945Z,16.64
2022-08-28T06:08:58.499Z,16.58
2022-08-28T06:11:30.318Z,16.64
2022-08-28T06:14:02.870Z,16.72
2022-08-28T06:16:31.910Z,16.70
2022-08-28T06:18:59.140Z,16.72
2022-08-28T06:21:25.952Z,16.73
2022-08-28T06:23:52.486Z,16.79
2022-08-28T06:26:19.067Z,16.86
2022-08-28T06:28:45.836Z,16.88
2022-08-28T06:31:24.627Z,16.78
2022-08-28T06:33:54.742Z,16.74
2022-08-28T06:36:22.010Z,16.76
2022-08-28T06:38:48.468Z,16.72
2022-08-28T06:41:18.328Z,16.82
2022-08-28T06:43:44.826Z,16.82
2022-08-28T06:46:11.384Z,16.86
2022-08-28T06:48:38.116Z,16.92
2022-08-28T06:51:10.075Z,16.92
2022-08-28T06:53:38.257Z,16.93
2022-08-28T06:56:09.153Z,16.98
2022-08-28T06:58:40.608Z,16.92
2022-08-28T07:01:10.293Z,16.95
2022-08-28T07:03:37.786Z,16.97
2022-08-28T07:06:13.550Z,17.00
2022-08-28T07:08:41.580Z,17.04
2022-08-28T07:11:13.840Z,17.11
2022-08-28T07:13:44.904Z,17.13
2022-08-28T07:16:14.118Z,17.12
2022-08-28T07:18:41.337Z,17.07
2022-08-28T07:21:12.253Z,17.07
2022-08-28T07:23:40.760Z,17.01
2022-08-28T07:26:10.340Z,17.04
2022-08-28T07:28:37.639Z,17.14
2022-08-28T07:31:13.174Z,17.15
2022-08-28T07:33:40.568Z,16.99
2022-08-28T07:36:16.006Z,17.11
2022-08-28T07:38:57.107Z,17.15
2022-08-28T07:41:26.628Z,17.28
2022-08-28T07:44:11.889Z,17.29
2022-08-28T07:46:39.405Z,17.27
2022-08-28T07:49:08.588Z,17.32
2022-08-28T07:51:35.561Z,17.33
2022-08-28T07:54:03.891Z,17.52
2022-08-28T07:56:31.012Z,17.40
2022-08-28T07:58:58.940Z,17.39
2022-08-28T08:01:27.512Z,17.49
2022-08-28T08:04:01.623Z,17.74
2022-08-28T08:06:34.136Z,17.95
2022-08-28T08:09:02.522Z,17.90
2022-08-28T08:11:32.542Z,18.04
2022-08-28T08:14:04.880Z,18.18
2022-08-28T08:16:41.448Z,18.12
2022-08-28T08:19:09.909Z,18.11
2022-08-28T08:21:37.675Z,18.10
2022-08-28T08:24:05.055Z,18.30
2022-08-28T08:26:32.468Z,18.32
2022-08-28T08:28:59.483Z,18.43
2022-08-28T08:31:29.456Z,18.43
2022-08-28T08:33:58.535Z,18.52
2022-08-28T08:36:27.062Z,18.60
2022-08-28T08:38:59.897Z,18.76
2022-08-28T08:41:33.325Z,18.75
2022-08-28T08:44:15.933Z,18.89
2022-08-28T08:46:49.424Z,18.82
2022-08-28T08:49:22.582Z,18.94
2022-08-28T08:52:02.812Z,19.00
2022-08-28T08:54:29.308Z,19.07
2022-08-28T08:56:56.261Z,18.87
2022-08-28T08:59:30.125Z,19.12
2022-08-28T09:02:17.245Z,19.16
2022-08-28T09:05:04.638Z,19.12
2022-08-28T09:07:39.962Z,19.38
2022-08-28T09:10:15.500Z,19.67
2022-08-28T09:12:52.911Z,19.47
2022-08-28T09:15:38.741Z,19.66
2022-08-28T09:18:28.082Z,19.96
2022-08-28T09:20:58.313Z,19.81
2022-08-28T09:23:26.748Z,20.09
2022-08-28T09:26:02.458Z,19.74
2022-08-28T09:28:37.159Z,19.85
2022-08-28T09:31:06.416Z,20.13
2022-08-28T09:33:44.877Z,20.26
2022-08-28T09:36:29.369Z,20.40
2022-08-28T09:39:08.737Z,20.56
2022-08-28T09:41:56.890Z,20.48
2022-08-28T09:44:23.381Z,20.33
2022-08-28T09:46:52.168Z,20.42
2022-08-28T09:49:28.532Z,20.52
2022-08-28T09:51:59.461Z,20.62
2022-08-28T09:54:35.766Z,20.67
2022-08-28T09:57:03.538Z,20.62
2022-08-28T09:59:30.281Z,20.75
2022-08-28T10:02:13.063Z,20.99
2022-08-28T10:05:03.228Z,20.26
2022-08-28T10:07:48.621Z,20.84
2022-08-28T10:10:20.978Z,21.13
2022-08-28T10:13:30.404Z,21.35
2022-08-28T10:16:15.219Z,21.57
2022-08-28T10:19:04.928Z,21.82
2022-08-28T10:21:49.234Z,21.76
2022-08-28T10:24:28.430Z,21.59
2022-08-28T10:27:11.615Z,21.76
2022-08-28T10:29:51.090Z,21.66
2022-08-28T10:32:33.665Z,21.82
2022-08-28T10:35:08.823Z,21.75
2022-08-28T10:38:02.908Z,21.60
2022-08-28T10:40:36.293Z,21.62
2022-08-28T10:43:20.908Z,21.59
2022-08-28T10:45:51.492Z,21.49
2022-08-28T10:48:29.233Z,21.41
2022-08-28T10:51:11.623Z,21.62
2022-08-28T10:53:44.461Z,21.62
2022-08-28T10:56:17.344Z,21.96
2022-08-28T10:58:48.625Z,22.11
2022-08-28T11:01:21.787Z,22.06
2022-08-28T11:03:51.156Z,22.21
2022-08-28T11:06:30.582Z,22.28
2022-08-28T11:08:59.838Z,22.46
2022-08-28T11:11:43.989Z,22.13
2022-08-28T11:14:23.924Z,22.01
2022-08-28T11:16:51.357Z,22.17
2022-08-28T11:19:24.244Z,22.29
2022-08-28T11:22:20.379Z,22.52
2022-08-28T11:24:59.320Z,22.64
2022-08-28T11:27:33.669Z,22.58
2022-08-28T11:30:26.401Z,22.65
2022-08-28T11:32:52.909Z,23.03
2022-08-28T11:35:42.954Z,23.02
2022-08-28T11:38:10.227Z,22.93
2022-08-28T11:40:53.051Z,23.14
2022-08-28T11:43:22.218Z,23.27
2022-08-28T11:45:54.869Z,23.48
2022-08-28T11:48:33.513Z,23.15
2022-08-28T11:51:04.616Z,22.94
2022-08-28T11:53:49.681Z,22.91
2022-08-28T11:56:38.184Z,22.57
2022-08-28T11:59:10.753Z,23.00
2022-08-28T12:01:37.936Z,23.09
2022-08-28T12:04:17.506Z,23.23
2022-08-28T12:06:49.406Z,23.34
2022-08-28T12:09:45.557Z,23.45
2022-08-28T12:12:20.910Z,23.17
2022-08-28T12:14:47.312Z,23.05
2022-08-28T12:17:16.780Z,23.04
2022-08-28T12:20:09.817Z,23.15
2022-08-28T12:22:52.824Z,23.17
2022-08-28T12:25:35.910Z,23.41
2022-08-28T12:28:17.125Z,23.52
2022-08-28T12:30:57.512Z,23.87
2022-08-28T12:33:34.240Z,24.33
2022-08-28T12:36:03.212Z,24.36
2022-08-28T12:38:32.768Z,24.68
2022-08-28T12:40:59.650Z,24.47
2022-08-28T12:43:43.267Z,24.42
2022-08-28T12:46:19.588Z,24.08
2022-08-28T12:48:52.564Z,23.88
2022-08-28T12:51:27.045Z,23.34
2022-08-28T12:53:57.419Z,23.21
2022-08-28T12:56:25.991Z,23.31
2022-08-28T12:58:52.858Z,23.25
2022-08-28T13:01:33.818Z,23.28
2022-08-28T13:04:18.409Z,23.52
2022-08-28T13:06:45.184Z,23.75
2022-08-28T13:09:20.922Z,24.02
2022-08-28T13:11:50.272Z,24.00
2022-08-28T13:14:46.073Z,24.15
2022-08-28T13:17:14.778Z,24.39
2022-08-28T13:19:41.473Z,24.26
2022-08-28T13:22:29.392Z,24.59
2022-08-28T13:25:00.712Z,24.70
2022-08-28T13:27:27.525Z,24.88
2022-08-28T13:30:19.918Z,25.10
2022-08-28T13:33:00.188Z,25.47
2022-08-28T13:35:26.618Z,25.73
2022-08-28T13:37:54.553Z,25.38
2022-08-28T13:43:15.320Z,25.48
2022-08-28T13:45:46.174Z,25.87
2022-08-28T13:48:14.539Z,26.12
2022-08-28T13:50:46.483Z,26.01
2022-08-28T13:53:14.442Z,26.03
2022-08-28T13:55:41.057Z,26.55
2022-08-28T13:58:07.566Z,26.58
2022-08-28T14:00:40.100Z,26.50
2022-08-28T14:03:25.105Z,26.82
2022-08-28T14:05:51.593Z,26.90
2022-08-28T14:08:18.060Z,26.67
2022-08-28T14:10:44.558Z,26.41
2022-08-28T14:13:10.997Z,26.89
2022-08-28T14:15:37.708Z,26.04
2022-08-28T14:18:05.301Z,26.28
2022-08-28T14:20:32.252Z,26.76
2022-08-28T14:22:58.833Z,26.86
2022-08-28T14:25:25.692Z,27.17
2022-08-28T14:27:52.269Z,27.13
2022-08-28T14:30:19.764Z,26.92
2022-08-28T14:32:46.385Z,27.33
2022-08-28T14:35:13.033Z,27.51
2022-08-28T14:37:39.640Z,27.60
2022-08-28T14:40:06.822Z,28.00
2022-08-28T14:42:33.316Z,28.37
2022-08-28T14:44:59.805Z,28.50
2022-08-28T14:47:26.397Z,28.00
2022-08-28T14:49:52.927Z,28.08
2022-08-28T14:52:19.513Z,27.90
2022-08-28T14:54:46.310Z,26.84
2022-08-28T14:57:13.538Z,27.74
2022-08-28T14:59:40.076Z,28.22
2022-08-28T15:02:06.611Z,28.13
2022-08-28T15:04:37.834Z,27.82
2022-08-28T15:07:10.551Z,28.20
2022-08-28T15:09:39.936Z,28.10
2022-08-28T15:12:07.118Z,28.09
2022-08-28T15:14:34.433Z,28.02
2022-08-28T15:17:01.082Z,27.82
2022-08-28T15:19:28.104Z,27.83
2022-08-28T15:21:55.883Z,27.13
2022-08-28T15:24:25.429Z,26.74
2022-08-28T15:26:52.231Z,26.61
2022-08-28T15:29:18.835Z,26.45
2022-08-28T15:31:48.906Z,26.56
2022-08-28T15:34:21.319Z,26.85
2022-08-28T15:36:55.645Z,27.10
2022-08-28T15:39:42.625Z,27.37
2022-08-28T15:42:10.221Z,27.44
2022-08-28T15:44:37.306Z,27.96
2022-08-28T15:47:04.955Z,27.94
2022-08-28T15:49:36.111Z,27.59
2022-08-28T15:52:10.755Z,28.07
2022-08-28T15:54:37.460Z,28.05
2022-08-28T15:57:04.111Z,27.91
2022-08-28T15:59:49.034Z,27.01
2022-08-28T16:02:21.807Z,27.25
2022-08-28T16:04:48.879Z,27.17
2022-08-28T16:07:16.443Z,27.25
2022-08-28T16:09:43.017Z,26.43
2022-08-28T16:12:09.524Z,26.03
2022-08-28T16:14:36.321Z,25.95
2022-08-28T16:17:05.689Z,26.40
2022-08-28T16:19:37.508Z,26.24
2022-08-28T16:22:04.217Z,26.12
2022-08-28T16:24:30.842Z,25.80
2022-08-28T16:26:57.328Z,25.76
2022-08-28T16:29:23.758Z,25.73
2022-08-28T16:31:50.473Z,25.51
2022-08-28T16:34:19.510Z,25.49
2022-08-28T16:36:50.066Z,24.92
2022-08-28T16:39:16.567Z,24.64
2022-08-28T16:41:46.223Z,24.36
2022-08-28T16:44:12.704Z,24.22
2022-08-28T16:46:39.208Z,24.01
2022-08-28T16:49:05.717Z,24.02
2022-08-28T16:51:32.193Z,23.85
2022-08-28T16:53:58.752Z,23.74
2022-08-28T16:56:26.446Z,23.81
2022-08-28T16:58:53.361Z,23.77
2022-08-28T17:01:23.959Z,23.76
2022-08-28T17:03:51.629Z,23.60
2022-08-28T17:06:23.353Z,23.76
2022-08-28T17:08:55.925Z,23.64
2022-08-28T17:11:27.070Z,23.49
2022-08-28T17:13:54.425Z,23.43
2022-08-28T17:16:23.537Z,23.53
2022-08-28T17:18:52.183Z,23.31
2022-08-28T17:21:39.392Z,23.42
2022-08-28T17:24:06.742Z,23.42
2022-08-28T17:26:33.353Z,23.22
2022-08-28T17:28:59.822Z,23.27
2022-08-28T17:31:26.327Z,23.14
2022-08-28T17:33:52.858Z,23.19
2022-08-28T17:36:32.576Z,23.14
2022-08-28T17:39:02.013Z,23.12
2022-08-28T17:41:28.503Z,23.08
2022-08-28T17:43:55.015Z,23.08
2022-08-28T17:46:21.595Z,22.92
2022-08-28T17:48:54.330Z,22.70
2022-08-28T17:51:33.173Z,22.64
2022-08-28T17:54:08.652Z,22.63
2022-08-28T17:56:36.164Z,22.57
2022-08-28T17:59:02.941Z,22.50
2022-08-28T18:01:29.505Z,22.46
2022-08-28T18:03:56.005Z,22.40
2022-08-28T18:06:22.737Z,22.33
2022-08-28T18:08:51.707Z,22.27
2022-08-28T18:11:19.134Z,22.19
2022-08-28T18:13:46.257Z,21.91
2022-08-28T18:16:12.928Z,21.64
2022-08-28T18:18:39.576Z,21.20
2022-08-28T18:21:06.113Z,20.44
2022-08-28T18:23:32.664Z,20.01
2022-08-28T18:25:59.162Z,19.90
2022-08-28T18:28:26.586Z,19.79
2022-08-28T18:30:53.755Z,19.54
2022-08-28T18:33:22.883Z,19.14
2022-08-28T18:35:50.572Z,19.06
2022-08-28T18:38:22.541Z,19.03
2022-08-28T18:40:49.280Z,19.00
2022-08-28T18:43:17.649Z,18.90
2022-08-28T18:45:44.213Z,18.72
2022-08-28T18:48:10.841Z,18.64
2022-08-28T18:50:37.910Z,18.46
2022-08-28T18:53:05.160Z,18.42
2022-08-28T18:55:33.060Z,18.45
2022-08-28T18:58:01.067Z,18.33
2022-08-28T19:00:27.760Z,18.24
2022-08-28T19:02:54.661Z,18.11
2022-08-28T19:05:21.472Z,18.00
2022-08-28T19:07:49.140Z,17.97
2022-08-28T19:10:32.853Z,17.87
2022-08-28T19:13:01.108Z,17.88
2022-08-28T19:15:28.281Z,17.86
2022-08-28T19:17:55.118Z,17.83
2022-08-28T19:20:21.806Z,17.82
2022-08-28T19:22:48.749Z,17.91
2022-08-28T19:25:28.148Z,17.88
2022-08-28T19:27:56.276Z,17.89
2022-08-28T19:30:25.532Z,17.83
2022-08-28T19:32:51.988Z,17.81
2022-08-28T19:35:18.944Z,17.71
2022-08-28T19:37:46.062Z,17.45
2022-08-28T19:40:13.168Z,17.54
2022-08-28T19:42:41.344Z,17.51
2022-08-28T19:45:12.383Z,17.58
2022-08-28T19:47:40.012Z,17.66
2022-08-28T19:50:09.525Z,17.59
2022-08-28T19:52:36.599Z,17.60
2022-08-28T19:55:05.624Z,17.52
2022-08-28T19:57:33.184Z,17.33
2022-08-28T20:00:00.193Z,17.37
2022-08-28T20:02:27.462Z,17.40
2022-08-28T20:04:54.449Z,17.49
2022-08-28T20:07:21.110Z,17.53
2022-08-28T20:09:47.655Z,17.53
2022-08-28T20:12:14.575Z,17.47
2022-08-28T20:14:42.468Z,17.33
2022-08-28T20:17:09.249Z,17.33
2022-08-28T20:19:35.918Z,17.27
2022-08-28T20:22:03.745Z,17.32
2022-08-28T20:24:30.366Z,17.10
2022-08-28T20:26:56.913Z,16.93
2022-08-28T20:29:24.118Z,16.92
2022-08-28T20:31:50.817Z,16.95
2022-08-28T20:34:18.817Z,16.92
2022-08-28T20:36:45.959Z,16.78
2022-08-28T20:39:12.478Z,16.65
2022-08-28T20:41:40.958Z,16.56
2022-08-28T20:44:10.357Z,16.55
2022-08-28T20:46:41.289Z,16.44
2022-08-28T20:49:11.944Z,16.24
2022-08-28T20:51:52.685Z,16.25
2022-08-28T20:54:21.417Z,16.32
2022-08-28T20:56:48.798Z,16.34
2022-08-28T20:59:15.364Z,16.33
2022-08-28T21:01:41.933Z,16.37
2022-08-28T21:04:08.522Z,16.31
2022-08-28T21:06:35.145Z,16.21
2022-08-28T21:09:01.879Z,16.21
2022-08-28T21:11:29.328Z,16.19
2022-08-28T21:13:55.850Z,16.13
2022-08-28T21:16:22.423Z,16.08
2022-08-28T21:19:05.393Z,16.10
2022-08-28T21:21:36.260Z,16.25
2022-08-28T21:24:05.513Z,16.12
2022-08-28T21:26:32.347Z,16.25
2022-08-28T21:28:58.977Z,16.23
2022-08-28T21:31:25.717Z,16.19
2022-08-28T21:33:52.257Z,16.12
2022-08-28T21:36:18.985Z,16.09
2022-08-28T21:38:45.468Z,16.13
2022-08-28T21:41:13.994Z,16.12
2022-08-28T21:43:43.041Z,16.05
2022-08-28T21:46:11.695Z,16.10
2022-08-28T21:48:38.714Z,16.15
2022-08-28T21:51:11.421Z,16.18
2022-08-28T21:53:39.376Z,16.06
2022-08-28T21:56:07.345Z,15.95
2022-08-28T21:58:35.711Z,15.97
2022-08-28T22:01:02.478Z,15.95
2022-08-28T22:03:29.618Z,15.99
2022-08-28T22:05:56.806Z,15.94
2022-08-28T22:08:28.504Z,15.85
2022-08-28T22:10:56.485Z,15.78
2022-08-28T22:13:23.273Z,15.69
2022-08-28T22:15:50.148Z,15.65
2022-08-28T22:18:16.722Z,15.64
2022-08-28T22:21:04.289Z,15.56
2022-08-28T22:23:37.073Z,15.62
2022-08-28T22:26:06.597Z,15.63
2022-08-28T22:28:33.306Z,15.69
2022-08-28T22:31:00.413Z,15.64
2022-08-28T22:33:27.049Z,15.78
2022-08-28T22:35:54.252Z,15.72
2022-08-28T22:38:22.617Z,15.77
2022-08-28T22:40:49.482Z,15.63
2022-08-28T22:43:17.106Z,15.46
2022-08-28T22:45:46.295Z,15.44
2022-08-28T22:48:17.288Z,15.32
2022-08-28T22:50:45.521Z,15.20
2022-08-28T22:53:12.224Z,15.24
2022-08-28T22:55:43.210Z,15.33
2022-08-28T22:58:11.075Z,15.25
2022-08-28T23:00:38.608Z,15.17
2022-08-28T23:03:05.176Z,15.07
2022-08-28T23:05:31.845Z,15.11
2022-08-28T23:07:58.666Z,15.01
2022-08-28T23:10:42.058Z,14.97
2022-08-28T23:13:09.010Z,14.83
2022-08-28T23:15:41.065Z,14.79
2022-08-28T23:18:07.586Z,14.81
2022-08-28T23:20:34.801Z,14.88
2022-08-28T23:23:01.819Z,14.88
2022-08-28T23:25:28.401Z,14.92
2022-08-28T23:27:55.888Z,14.88
2022-08-28T23:30:23.093Z,14.85
2022-08-28T23:32:49.572Z,14.77
2022-08-28T23:35:17.440Z,14.65
2022-08-28T23:37:48.535Z,14.42
2022-08-28T23:40:20.163Z,14.28
2022-08-28T23:42:46.978Z,14.25
2022-08-28T23:45:17.046Z,14.31
2022-08-28T23:47:44.220Z,14.41
2022-08-28T23:50:15.464Z,14.44
2022-08-28T23:52:43.161Z,14.37
2022-08-28T23:55:11.732Z,14.29
2022-08-28T23:57:38.405Z,14.27
